Time;durP1;ratioP1;P1;durP2;ratioP2;P2;SDS_P1;SDS_P2;PMS_P1;PMS_P2;Temp;Humidity;BMP_temperature;BMP_pressure;BME280_temperature;BME280_humidity;BME280_pressure;Samples;Min_cycle;Max_cycle;Signal;HPM_P1;HPM_P2
2021/09/14 00:00:35;;;;;;;4.45;1.40;;;;;;;14.26;62.33;98069.63;5091628;28;20495;-60
2021/09/14 00:03:01;;;;;;;6.60;1.30;;;;;;;14.12;61.06;98071.47;5091620;28;20058;-60
2021/09/14 00:05:27;;;;;;;3.33;1.60;;;;;;;13.95;60.51;98072.00;5091451;28;20063;-61
2021/09/14 00:07:53;;;;;;;4.22;1.60;;;;;;;13.84;60.46;98079.38;5091757;28;20052;-59
2021/09/14 00:10:19;;;;;;;2.88;1.30;;;;;;;13.78;60.58;98087.72;5090443;28;20122;-62
2021/09/14 00:12:44;;;;;;;2.85;1.20;;;;;;;13.71;60.96;98097.97;5090239;28;20040;-59
2021/09/14 00:15:10;;;;;;;2.13;1.40;;;;;;;13.67;60.77;98107.59;5089956;28;20139;-58
2021/09/14 00:17:37;;;;;;;2.03;1.30;;;;;;;13.61;60.83;98102.34;5091473;28;20044;-59
2021/09/14 00:20:04;;;;;;;2.55;1.40;;;;;;;13.52;60.51;98100.63;5092028;28;20048;-59
2021/09/14 00:22:30;;;;;;;1.40;1.30;;;;;;;13.44;60.75;98099.38;5091243;28;20048;-58
2021/09/14 00:24:56;;;;;;;3.15;1.40;;;;;;;13.25;61.15;98114.53;5090385;28;20043;-60
2021/09/14 00:27:21;;;;;;;1.70;1.42;;;;;;;13.13;62.09;98120.25;5090113;28;20151;-60
2021/09/14 00:29:47;;;;;;;1.77;1.20;;;;;;;12.94;62.21;98121.03;5090356;28;20590;-60
2021/09/14 00:32:16;;;;;;;2.47;1.40;;;;;;;12.81;62.39;98118.22;5091304;28;20070;-60
2021/09/14 00:34:42;;;;;;;3.63;1.50;;;;;;;12.64;62.85;98131.97;5091709;28;20489;-60
2021/09/14 00:37:08;;;;;;;2.65;1.42;;;;;;;12.55;63.01;98128.34;5091567;28;20486;-60
2021/09/14 00:39:33;;;;;;;3.42;2.10;;;;;;;12.42;64.30;98133.22;5091259;28;20532;-60
2021/09/14 00:41:59;;;;;;;3.25;1.50;;;;;;;12.33;64.43;98134.13;5091534;28;20047;-59
2021/09/14 00:44:25;;;;;;;3.13;1.58;;;;;;;12.26;65.18;98145.06;5090156;28;20074;-59
2021/09/14 00:46:51;;;;;;;3.13;1.55;;;;;;;12.18;65.24;98143.81;5091276;28;20048;-60
2021/09/14 00:49:17;;;;;;;2.45;1.60;;;;;;;12.09;64.72;98145.47;5073253;28;20040;-60
2021/09/14 00:51:43;;;;;;;2.25;1.38;;;;;;;12.02;64.65;98153.72;5091179;28;20090;-59
2021/09/14 00:54:14;;;;;;;3.85;1.90;;;;;;;11.95;65.28;98153.25;5090172;28;20413;-58
2021/09/14 00:56:41;;;;;;;4.63;2.00;;;;;;;11.89;65.69;98156.25;5091026;28;20083;-60
2021/09/14 00:59:08;;;;;;;3.53;2.03;;;;;;;11.78;66.29;98152.81;5091505;28;20044;-60
2021/09/14 01:01:34;;;;;;;5.10;1.60;;;;;;;11.73;66.27;98155.50;5091204;28;20051;-59
2021/09/14 01:04:00;;;;;;;3.80;1.60;;;;;;;11.57;66.56;98144.97;5089802;28;20054;-59
2021/09/14 01:06:26;;;;;;;2.10;1.35;;;;;;;11.57;66.77;98155.59;5089722;28;20044;-59
2021/09/14 01:08:52;;;;;;;1.92;1.40;;;;;;;11.51;67.32;98167.28;5089840;28;20043;-59
2021/09/14 01:11:17;;;;;;;3.78;2.22;;;;;;;11.47;67.00;98166.25;5091103;28;20501;-60
2021/09/14 01:13:43;;;;;;;2.55;1.75;;;;;;;11.42;67.26;98168.94;5089518;28;20056;-60
2021/09/14 01:16:11;;;;;;;4.75;1.55;;;;;;;11.40;67.37;98155.13;5089746;28;20048;-60
2021/09/14 01:18:39;;;;;;;2.25;1.60;;;;;;;11.37;67.29;98156.47;5089569;28;20039;-60
2021/09/14 01:21:06;;;;;;;1.58;1.40;;;;;;;11.34;65.63;98150.91;5090966;28;20123;-60
2021/09/14 01:23:32;;;;;;;1.70;1.48;;;;;;;11.28;66.27;98144.84;5072776;28;20040;-59
2021/09/14 01:26:01;;;;;;;1.50;1.10;;;;;;;11.29;66.25;98151.72;5089567;28;20040;-59
2021/09/14 01:28:27;;;;;;;1.50;1.30;;;;;;;11.26;66.00;98143.53;5089521;28;20095;-60
2021/09/14 01:30:53;;;;;;;2.33;1.25;;;;;;;11.25;66.15;98156.00;5089639;28;20586;-61
2021/09/14 01:33:19;;;;;;;1.33;1.23;;;;;;;11.23;66.16;98159.97;5090778;28;20039;-59
2021/09/14 01:35:46;;;;;;;5.32;1.50;;;;;;;11.17;66.06;98155.75;5092455;28;20097;-59
2021/09/14 01:38:13;;;;;;;1.58;1.30;;;;;;;11.13;66.44;98151.00;5093083;28;20061;-59
2021/09/14 01:40:46;;;;;;;1.27;1.17;;;;;;;11.11;66.50;98157.63;5093046;28;20044;-58
2021/09/14 01:43:12;;;;;;;2.05;1.85;;;;;;;11.09;67.20;98154.47;5093116;28;20126;-59
2021/09/14 01:45:37;;;;;;;1.60;1.42;;;;;;;11.06;67.52;98153.16;5093021;28;20127;-59
2021/09/14 01:48:19;;;;;;;3.08;1.48;;;;;;;11.04;67.96;98157.16;5092927;28;20047;-59
2021/09/14 01:50:46;;;;;;;3.17;1.50;;;;;;;11.04;68.18;98154.50;5092871;28;20082;-60
2021/09/14 01:53:12;;;;;;;3.85;1.40;;;;;;;11.00;67.15;98145.47;5092771;28;20040;-59
2021/09/14 01:55:39;;;;;;;2.35;1.35;;;;;;;10.99;67.06;98147.34;5092779;28;20134;-60
2021/09/14 01:58:05;;;;;;;4.35;1.88;;;;;;;11.02;66.54;98148.66;5092844;28;20050;-59
2021/09/14 02:00:33;;;;;;;2.40;1.50;;;;;;;11.05;66.32;98148.13;5092659;28;20576;-60
2021/09/14 02:59:34;;;;;;;2.85;1.70;;;;;;;10.88;68.38;98188.19;5091861;28;20134;-60
2021/09/14 03:02:01;;;;;;;2.30;1.40;;;;;;;10.82;68.48;98186.59;5074620;28;20518;-60
2021/09/14 03:04:28;;;;;;;2.00;1.50;;;;;;;10.80;68.33;98188.75;5091381;28;20040;-60
2021/09/14 03:06:54;;;;;;;3.15;1.80;;;;;;;10.82;68.08;98192.69;5074609;28;20052;-60
2021/09/14 03:09:30;;;;;;;1.60;1.50;;;;;;;10.83;67.60;98196.97;5091399;28;20127;-60
2021/09/14 03:11:56;;;;;;;3.55;1.60;;;;;;;10.80;67.59;98199.34;5091451;28;20079;-60
2021/09/14 03:14:22;;;;;;;2.55;2.28;;;;;;;10.79;68.11;98193.22;5091094;28;20594;-59
2021/09/14 03:16:48;;;;;;;2.40;1.70;;;;;;;10.81;68.21;98193.78;5091123;28;20047;-59
2021/09/14 03:19:13;;;;;;;3.40;1.60;;;;;;;10.87;68.00;98192.69;5091413;28;20036;-59
2021/09/14 03:21:39;;;;;;;3.83;1.80;;;;;;;10.96;67.97;98210.72;5091180;28;20121;-61
2021/09/14 03:24:08;;;;;;;3.13;1.60;;;;;;;10.92;67.58;98210.47;5091162;28;20053;-59
2021/09/14 03:26:34;;;;;;;4.57;1.65;;;;;;;10.88;67.55;98215.50;5091080;28;20048;-60
2021/09/14 03:29:00;;;;;;;3.42;1.60;;;;;;;10.91;67.69;98211.50;5091137;28;20036;-58
2021/09/14 03:31:31;;;;;;;5.78;1.73;;;;;;;10.95;67.79;98212.56;5090873;28;20044;-60
2021/09/14 03:33:57;;;;;;;2.08;1.45;;;;;;;11.00;67.43;98219.72;5092323;28;20571;-60
2021/09/14 03:36:23;;;;;;;5.65;1.52;;;;;;;11.08;67.53;98214.66;5092343;28;20052;-61
2021/09/14 03:38:50;;;;;;;1.67;1.58;;;;;;;11.15;67.31;98219.69;5090882;28;20042;-60
2021/09/14 03:41:16;;;;;;;6.25;1.60;;;;;;;11.18;66.41;98211.22;5092246;28;20048;-61
2021/09/14 03:43:43;;;;;;;4.78;1.88;;;;;;;11.22;66.61;98222.06;5090693;28;20120;-60
2021/09/14 03:46:09;;;;;;;5.32;1.60;;;;;;;11.23;66.47;98223.63;5090681;28;20564;-60
2021/09/14 03:48:34;;;;;;;3.28;1.60;;;;;;;11.19;66.38;98228.69;5090603;28;20128;-59
2021/09/14 03:51:01;;;;;;;3.38;1.60;;;;;;;11.13;66.63;98230.56;5090866;28;20040;-59
2021/09/14 03:53:28;;;;;;;2.65;1.67;;;;;;;11.07;66.09;98233.50;5090217;28;20050;-61
2021/09/14 03:55:54;;;;;;;2.47;1.48;;;;;;;11.17;66.36;98243.28;5090343;28;20139;-60
2021/09/14 03:58:22;;;;;;;4.28;1.58;;;;;;;11.21;65.80;98239.84;5090064;28;20051;-60
2021/09/14 04:00:52;;;;;;;7.25;1.92;;;;;;;11.23;65.38;98242.22;5090424;28;20044;-61
2021/09/14 04:03:39;;;;;;;2.22;1.50;;;;;;;11.13;65.21;98225.25;5090329;28;20478;-60
2021/09/14 04:08:55;;;;;;;2.15;1.40;;;;;;;11.24;64.52;98239.31;5090502;28;20044;-60
2021/09/14 04:11:35;;;;;;;2.47;1.30;;;;;;;11.27;64.85;98236.09;5090232;28;20127;-58
2021/09/14 04:14:01;;;;;;;2.58;1.80;;;;;;;11.34;64.69;98244.56;5090137;28;20469;-60
2021/09/14 04:16:27;;;;;;;4.85;1.63;;;;;;;11.40;64.43;98244.56;5090107;28;20055;-60
2021/09/14 04:18:56;;;;;;;5.05;1.98;;;;;;;11.33;64.27;98235.03;5090092;28;20523;-59
2021/09/14 04:21:21;;;;;;;3.53;1.50;;;;;;;11.35;64.22;98238.22;5090192;28;20068;-61
2021/09/14 04:23:47;;;;;;;3.15;1.33;;;;;;;11.39;64.06;98240.31;5090290;28;20393;-59
2021/09/14 04:26:13;;;;;;;3.65;1.52;;;;;;;11.40;64.23;98241.91;5090130;28;20101;-61
2021/09/14 04:28:39;;;;;;;2.42;1.50;;;;;;;11.45;63.67;98240.03;5073367;28;20040;-60
2021/09/14 04:31:05;;;;;;;3.03;1.40;;;;;;;11.41;63.68;98238.19;5090120;28;20044;-61
2021/09/14 04:33:32;;;;;;;7.85;2.08;;;;;;;11.42;63.66;98245.09;5089960;28;20047;-60
2021/09/14 04:35:58;;;;;;;2.92;1.40;;;;;;;11.43;63.69;98233.41;5089992;28;20044;-61
2021/09/14 04:38:28;;;;;;;2.97;1.48;;;;;;;11.47;63.65;98240.56;5090129;28;20043;-60
2021/09/14 04:40:54;;;;;;;4.70;1.77;;;;;;;11.51;63.56;98238.94;5089807;28;20445;-60
2021/09/14 04:43:21;;;;;;;4.07;1.40;;;;;;;11.53;63.52;98239.47;5089835;28;20440;-60
2021/09/14 04:45:47;;;;;;;2.90;1.50;;;;;;;11.52;63.77;98245.03;5091278;28;20044;-60
2021/09/14 04:48:13;;;;;;;2.67;1.40;;;;;;;11.51;63.85;98248.78;5090043;28;20048;-60
2021/09/14 04:50:39;;;;;;;3.00;1.50;;;;;;;11.52;63.71;98247.69;5089943;28;20055;-61
2021/09/14 04:53:06;;;;;;;4.35;1.50;;;;;;;11.52;63.98;98247.69;5089836;28;20389;-59
2021/09/14 04:55:34;;;;;;;2.97;1.42;;;;;;;11.52;64.28;98253.00;5089690;28;20052;-59
2021/09/14 04:58:00;;;;;;;5.97;1.80;;;;;;;11.55;63.82;98255.91;5089767;28;20050;-59
2021/09/14 05:00:26;;;;;;;3.67;1.40;;;;;;;11.59;63.99;98261.50;5089793;28;20394;-65
2021/09/14 05:02:53;;;;;;;4.57;1.58;;;;;;;11.63;63.59;98262.53;5089719;28;20043;-58
2021/09/14 05:05:21;;;;;;;2.45;1.75;;;;;;;11.65;63.61;98256.94;5089775;28;20033;-60
2021/09/14 05:07:48;;;;;;;6.22;1.70;;;;;;;11.89;63.54;98257.16;5089744;28;20040;-61
2021/09/14 05:10:13;;;;;;;3.85;1.40;;;;;;;12.17;62.71;98256.44;5093694;28;20046;-58
2021/09/14 05:12:46;;;;;;;2.75;1.58;;;;;;;12.37;62.08;98257.38;5093566;28;20355;-62
2021/09/14 05:15:12;;;;;;;5.40;1.50;;;;;;;12.55;61.71;98258.59;5093547;28;20143;-61
2021/09/14 05:18:09;;;;;;;3.30;1.63;;;;;;;12.71;61.55;98257.41;5094643;28;20041;-60
2021/09/14 05:20:40;;;;;;;7.63;1.73;;;;;;;12.82;61.26;98256.22;5093395;28;20044;-60
2021/09/14 05:23:16;;;;;;;3.55;1.65;;;;;;;12.89;60.95;98262.03;5093295;28;20040;-59
2021/09/14 05:25:44;;;;;;;4.35;2.05;;;;;;;12.85;61.16;98262.84;5094545;28;20501;-61
2021/09/14 05:28:12;;;;;;;3.97;1.98;;;;;;;12.83;61.39;98257.03;5094516;28;20484;-59
2021/09/14 05:30:38;;;;;;;5.15;1.70;;;;;;;12.73;61.77;98263.22;5094498;28;20039;-60
2021/09/14 05:33:04;;;;;;;3.65;1.50;;;;;;;12.77;62.40;98256.28;5094851;28;20090;-59
2021/09/14 05:35:40;;;;;;;2.90;1.48;;;;;;;12.78;62.73;98273.03;5093175;28;20135;-60
2021/09/14 05:38:07;;;;;;;4.70;1.80;;;;;;;12.79;62.50;98267.41;5093096;28;20044;-60
2021/09/14 05:40:33;;;;;;;4.10;1.70;;;;;;;12.88;62.80;98267.59;5093398;28;20202;-61
2021/09/14 05:43:06;;;;;;;2.30;1.40;;;;;;;12.85;62.46;98269.00;5076995;28;20040;-60
2021/09/14 05:45:33;;;;;;;3.28;2.17;;;;;;;12.71;62.89;98266.16;5092708;28;20551;-61
2021/09/14 05:48:00;;;;;;;1.88;1.63;;;;;;;12.73;62.87;98279.16;5076095;28;20082;-58
2021/09/14 05:50:30;;;;;;;1.67;1.40;;;;;;;12.73;62.72;98273.84;5060600;28;20036;-62
2021/09/14 05:52:56;;;;;;;7.28;1.92;;;;;;;12.77;62.89;98285.53;5075940;28;20036;-61
2021/09/14 05:55:22;;;;;;;7.45;1.90;;;;;;;12.77;62.03;98272.25;5076061;28;20048;-61
2021/09/14 05:57:48;;;;;;;2.58;1.52;;;;;;;12.70;62.84;98266.44;5092735;28;20096;-60
2021/09/14 06:00:14;;;;;;;5.47;1.70;;;;;;;12.78;62.55;98273.81;5065775;28;20036;-60
2021/09/14 06:02:40;;;;;;;2.35;1.45;;;;;;;12.98;61.47;98272.06;5090282;28;20518;-59
2021/09/14 06:05:09;;;;;;;1.60;1.45;;;;;;;13.11;61.14;98271.41;5090895;28;20068;-61
2021/09/14 06:07:41;;;;;;;6.32;1.95;;;;;;;13.16;61.03;98279.34;5089147;28;20040;-60
2021/09/14 06:10:07;;;;;;;5.43;1.65;;;;;;;13.23;60.94;98282.44;5091546;28;20390;-60
2021/09/14 06:12:40;;;;;;;4.70;1.67;;;;;;;13.34;60.39;98285.84;5091220;28;20089;-60
2021/09/14 06:15:08;;;;;;;2.13;1.40;;;;;;;13.54;59.71;98287.50;5089826;28;20048;-60
2021/09/14 06:17:34;;;;;;;1.30;1.20;;;;;;;13.71;58.91;98284.38;5089973;28;20123;-60
2021/09/14 06:20:00;;;;;;;2.90;1.83;;;;;;;13.87;58.30;98280.44;5089456;28;20147;-59
2021/09/14 06:22:25;;;;;;;4.78;2.28;;;;;;;14.06;57.44;98291.94;5072718;28;20072;-62
2021/09/14 06:24:52;;;;;;;2.72;1.58;;;;;;;14.07;57.49;98280.19;5089535;28;20075;-59
2021/09/14 06:27:18;;;;;;;4.07;1.73;;;;;;;14.08;57.53;98279.09;5091554;28;20088;-59
2021/09/14 06:29:44;;;;;;;1.83;1.38;;;;;;;14.06;57.35;98272.50;5090972;28;20127;-59
2021/09/14 06:32:13;;;;;;;1.67;1.30;;;;;;;14.02;56.21;98274.91;5074248;28;20054;-61
2021/09/14 06:35:00;;;;;;;4.22;1.85;;;;;;;13.80;55.78;98272.81;5091826;28;20524;-60
2021/09/14 06:37:33;;;;;;;9.55;1.85;;;;;;;13.87;56.07;98269.78;5090012;28;20131;-57
2021/09/14 06:40:03;;;;;;;3.97;1.67;;;;;;;13.88;56.32;98271.38;5073305;28;20496;-60
2021/09/14 06:42:29;;;;;;;4.35;1.77;;;;;;;13.79;55.73;98276.53;5073328;28;20044;-59
2021/09/14 06:44:58;;;;;;;6.90;1.90;;;;;;;13.89;55.88;98285.50;5073347;28;20040;-60
2021/09/14 06:47:44;;;;;;;4.07;1.48;;;;;;;13.79;55.06;98289.84;5062459;28;20048;-59
2021/09/14 06:50:10;;;;;;;3.58;1.52;;;;;;;13.60;55.22;98289.81;5049085;28;20061;-59
2021/09/14 06:52:37;;;;;;;3.50;1.60;;;;;;;13.60;55.36;98291.69;5031582;28;20045;-60
2021/09/14 06:55:04;;;;;;;2.90;1.58;;;;;;;13.63;53.66;98288.47;5048478;28;20098;-59
2021/09/14 06:57:30;;;;;;;5.55;1.40;;;;;;;13.78;53.69;98280.28;5048334;28;20131;-60
2021/09/14 06:59:55;;;;;;;18.17;2.53;;;;;;;13.79;50.82;98283.72;5030842;28;20132;-60
2021/09/14 07:02:21;;;;;;;4.57;1.25;;;;;;;13.53;49.88;98273.41;5048071;28;20537;-61
2021/09/14 07:04:47;;;;;;;6.10;1.27;;;;;;;13.43;51.61;98289.47;5030967;28;20490;-60
2021/09/14 07:07:13;;;;;;;4.32;1.30;;;;;;;13.47;49.90;98287.84;5047035;28;20049;-58
2021/09/14 07:09:40;;;;;;;1.55;1.40;;;;;;;13.61;50.16;98278.06;5048614;28;20715;-59
2021/09/14 07:12:06;;;;;;;4.30;1.33;;;;;;;13.61;49.89;98285.28;5047437;28;20049;-58
2021/09/14 07:14:32;;;;;;;2.72;1.20;;;;;;;13.34;49.07;98283.19;5030504;28;20056;-59
2021/09/14 07:16:58;;;;;;;4.18;1.17;;;;;;;13.29;50.47;98275.25;5048493;28;20051;-59
2021/09/14 07:19:24;;;;;;;9.82;1.50;;;;;;;13.41;50.71;98275.63;5064593;28;20060;-60
2021/09/14 07:21:49;;;;;;;3.88;1.38;;;;;;;13.63;51.66;98281.25;5068825;28;20086;-59
2021/09/14 07:24:15;;;;;;;3.05;1.52;;;;;;;13.92;51.18;98298.25;5070311;28;20049;-60
2021/09/14 07:26:41;;;;;;;3.58;1.45;;;;;;;13.94;49.55;98290.75;5069185;28;20600;-60
2021/09/14 07:29:06;;;;;;;3.15;1.30;;;;;;;13.86;48.21;98281.53;5072572;28;20040;-59
2021/09/14 07:31:33;;;;;;;2.33;1.17;;;;;;;13.76;47.52;98298.41;5087446;28;20489;-60
2021/09/14 07:33:59;;;;;;;4.95;1.45;;;;;;;13.60;47.49;98305.00;5090311;28;20089;-60
2021/09/14 07:36:26;;;;;;;2.17;1.20;;;;;;;13.68;47.09;98303.56;5086810;28;20044;-61
2021/09/14 07:38:52;;;;;;;1.38;1.05;;;;;;;13.36;47.57;98297.78;5088844;28;20079;-59
2021/09/14 07:41:17;;;;;;;1.98;1.50;;;;;;;13.33;47.62;98306.34;5090029;28;20074;-60
2021/09/14 07:43:43;;;;;;;3.08;1.20;;;;;;;13.23;49.40;98293.09;5087086;28;20052;-60
2021/09/14 07:46:10;;;;;;;3.10;2.03;;;;;;;13.37;49.76;98311.88;5089073;28;20044;-60
2021/09/14 07:48:36;;;;;;;4.18;1.40;;;;;;;13.48;48.93;98304.59;5084080;28;20409;-60
2021/09/14 07:51:03;;;;;;;5.68;1.55;;;;;;;13.74;48.09;98305.13;5088786;28;20036;-59
2021/09/14 07:53:29;;;;;;;3.22;1.40;;;;;;;13.81;48.43;98303.69;5089372;28;20630;-60
2021/09/14 07:55:55;;;;;;;2.60;1.30;;;;;;;13.90;46.93;98300.41;5086567;28;20138;-61
2021/09/14 07:58:21;;;;;;;3.55;1.52;;;;;;;13.88;46.35;98307.88;5087817;28;20570;-60
2021/09/14 08:00:46;;;;;;;2.60;1.23;;;;;;;13.79;46.98;98308.50;5069223;28;20456;-59
2021/09/14 08:03:12;;;;;;;9.15;2.25;;;;;;;13.69;47.95;98300.63;5086298;28;20048;-59
2021/09/14 08:05:42;;;;;;;1.80;1.25;;;;;;;13.83;47.02;98306.88;5089654;28;20122;-60
2021/09/14 08:08:08;;;;;;;6.23;1.63;;;;;;;14.00;46.88;98311.72;5087358;28;20052;-61
2021/09/14 08:10:35;;;;;;;4.90;1.38;;;;;;;14.08;45.71;98300.41;5088922;28;20052;-61
2021/09/14 08:13:06;;;;;;;2.88;1.40;;;;;;;14.04;44.96;98310.06;5087863;28;20050;-59
2021/09/14 08:15:37;;;;;;;1.33;1.10;;;;;;;13.92;44.56;98292.91;5087756;28;20101;-60
2021/09/14 08:18:03;;;;;;;2.50;1.45;;;;;;;13.72;45.92;98293.94;5087487;28;20130;-59
2021/09/14 08:20:28;;;;;;;3.55;1.20;;;;;;;13.69;45.80;98300.63;5087704;28;20119;-61
2021/09/14 08:22:54;;;;;;;4.13;1.23;;;;;;;13.67;45.30;98284.13;5086836;28;20420;-59
2021/09/14 08:25:20;;;;;;;2.70;1.30;;;;;;;13.64;45.49;98301.47;5087476;28;20085;-59
2021/09/14 08:27:46;;;;;;;1.33;1.20;;;;;;;13.73;45.82;98306.19;5083992;28;20062;-58
2021/09/14 08:30:13;;;;;;;3.70;1.13;;;;;;;13.75;45.50;98296.03;5086967;28;20166;-59
2021/09/14 08:32:39;;;;;;;2.10;1.13;;;;;;;13.72;45.01;98312.59;5089490;28;20489;-60
2021/09/14 08:35:05;;;;;;;2.50;1.20;;;;;;;13.73;45.10;98306.19;5089023;28;20052;-59
2021/09/14 08:37:31;;;;;;;2.05;1.10;;;;;;;13.55;44.41;98310.38;5086976;28;20036;-59
2021/09/14 08:39:57;;;;;;;2.47;1.80;;;;;;;13.40;45.54;98309.44;5089252;28;20043;-59
2021/09/14 08:42:23;;;;;;;6.60;1.40;;;;;;;13.36;45.83;98299.66;5085270;28;20094;-60
2021/09/14 08:44:48;;;;;;;2.35;1.10;;;;;;;13.42;45.75;98297.75;5091510;28;20135;-61
2021/09/14 08:47:15;;;;;;;5.30;1.00;;;;;;;13.37;46.44;98301.25;5093521;28;20032;-60
2021/09/14 08:49:41;;;;;;;4.43;1.23;;;;;;;13.49;46.43;98322.94;5090971;28;20059;-60
2021/09/14 08:52:07;;;;;;;4.13;1.27;;;;;;;13.49;47.28;98317.63;5093758;28;20036;-59
2021/09/14 08:54:33;;;;;;;2.40;1.70;;;;;;;13.48;47.45;98326.69;5092643;28;20559;-59
2021/09/14 08:56:58;;;;;;;1.67;1.40;;;;;;;13.43;47.62;98320.63;5091951;28;20519;-60
2021/09/14 08:59:31;;;;;;;4.70;1.90;;;;;;;13.48;46.66;98321.38;5092107;28;20493;-60
2021/09/14 09:02:02;;;;;;;2.00;1.20;;;;;;;13.69;46.75;98321.94;5090978;28;20505;-59
2021/09/14 09:04:29;;;;;;;6.72;1.65;;;;;;;13.83;46.26;98325.50;5091740;28;20040;-60
2021/09/14 09:06:54;;;;;;;2.50;1.33;;;;;;;14.05;46.38;98310.84;5092989;28;20040;-59
2021/09/14 09:09:22;;;;;;;3.97;1.40;;;;;;;14.27;46.04;98316.44;5073936;28;20404;-59
2021/09/14 09:12:10;;;;;;;4.68;1.40;;;;;;;14.38;46.04;98306.41;5093007;28;20054;-59
2021/09/14 09:14:39;;;;;;;11.95;1.50;;;;;;;14.35;45.68;98303.53;5091479;28;20056;-59
2021/09/14 09:17:16;;;;;;;4.72;1.48;;;;;;;14.02;46.17;98276.78;5073707;28;20564;-59
2021/09/14 09:19:46;;;;;;;13.70;1.90;;;;;;;13.87;46.88;98293.75;5091494;28;20068;-60
2021/09/14 09:22:12;;;;;;;3.58;1.08;;;;;;;13.85;46.82;98301.25;5091980;28;20448;-60
2021/09/14 09:24:45;;;;;;;2.08;1.20;;;;;;;13.97;46.34;98295.50;5091068;28;20447;-60
2021/09/14 09:27:13;;;;;;;2.92;1.30;;;;;;;14.04;46.05;98296.75;5088882;28;20068;-58
2021/09/14 09:29:40;;;;;;;4.68;1.50;;;;;;;14.09;45.97;98288.69;5091643;28;20454;-59
2021/09/14 09:32:06;;;;;;;2.42;1.40;;;;;;;14.28;45.31;98298.56;5090871;28;20503;-59
2021/09/14 09:34:32;;;;;;;3.10;1.27;;;;;;;14.27;44.04;98289.78;5089060;28;20086;-60
2021/09/14 09:37:06;;;;;;;5.55;1.20;;;;;;;14.24;44.28;98282.34;5089053;28;20436;-60
2021/09/14 09:39:47;;;;;;;4.30;1.50;;;;;;;14.06;44.70;98301.81;5072399;28;20044;-58
2021/09/14 09:42:14;;;;;;;2.30;1.10;;;;;;;13.93;44.46;98297.94;5090156;28;20402;-58
2021/09/14 09:44:52;;;;;;;3.70;1.17;;;;;;;13.79;45.76;98300.50;5090919;28;20036;-60
2021/09/14 09:47:18;;;;;;;2.83;1.50;;;;;;;13.37;45.95;98295.91;5090364;28;20036;-59
2021/09/14 09:49:47;;;;;;;3.63;1.30;;;;;;;13.21;46.35;98300.59;5090415;28;20048;-60
2021/09/14 09:52:14;;;;;;;6.32;1.40;;;;;;;13.29;45.96;98313.28;5091231;28;20118;-59
2021/09/14 09:54:40;;;;;;;3.95;1.38;;;;;;;13.16;45.78;98301.41;5089973;28;20054;-59
2021/09/14 09:57:08;;;;;;;2.40;1.27;;;;;;;13.21;45.77;98302.44;5092050;28;20048;-60
2021/09/14 09:59:34;;;;;;;2.28;1.10;;;;;;;13.00;45.87;98305.31;5073319;28;20048;-60
2021/09/14 10:02:26;;;;;;;3.55;1.63;;;;;;;13.04;46.60;98303.66;5088422;28;20063;-59
2021/09/14 10:05:00;;;;;;;3.70;1.52;;;;;;;13.05;45.81;98313.22;5088452;28;20044;-60
2021/09/14 10:07:28;;;;;;;4.70;1.30;;;;;;;13.00;46.19;98321.25;5090050;28;20043;-59
2021/09/14 10:09:56;;;;;;;3.13;1.58;;;;;;;12.82;46.31;98320.03;5089488;28;20051;-60
2021/09/14 10:12:29;;;;;;;8.85;1.70;;;;;;;12.77;45.69;98329.94;5091378;28;20047;-60
2021/09/14 10:15:12;;;;;;;2.83;1.48;;;;;;;12.72;46.62;98323.59;5090388;28;20052;-60
2021/09/14 10:17:53;;;;;;;7.72;3.00;;;;;;;12.68;47.45;98327.09;5090297;28;20043;-60
2021/09/14 10:20:21;;;;;;;3.58;1.65;;;;;;;12.76;48.25;98329.13;5091168;28;20043;-59
2021/09/14 10:23:27;;;;;;;3.30;1.40;;;;;;;12.80;48.00;98314.22;5092237;28;20032;-60
2021/09/14 10:26:10;;;;;;;3.90;1.30;;;;;;;12.96;47.50;98320.22;5078234;28;20048;-57
2021/09/14 10:28:46;;;;;;;2.22;1.20;;;;;;;13.23;46.66;98313.59;5089929;28;20048;-61
2021/09/14 10:31:26;;;;;;;1.65;1.20;;;;;;;13.45;45.99;98326.47;5090403;28;20036;-60
2021/09/14 10:34:06;;;;;;;5.50;1.23;;;;;;;13.48;46.92;98323.25;5089872;28;20102;-61
2021/09/14 10:36:33;;;;;;;2.92;1.20;;;;;;;13.50;46.95;98331.72;5091008;28;20047;-60
2021/09/14 10:38:59;;;;;;;1.90;1.20;;;;;;;13.47;46.25;98325.13;5087320;28;20055;-59
2021/09/14 10:41:40;;;;;;;1.15;1.05;;;;;;;13.30;46.28;98333.53;5087605;28;20049;-61
2021/09/14 10:44:10;;;;;;;2.90;1.23;;;;;;;13.25;46.68;98333.56;5088374;28;20071;-60
2021/09/14 10:46:40;;;;;;;2.50;1.20;;;;;;;13.27;46.68;98307.47;5088135;28;20430;-60
2021/09/14 10:49:14;;;;;;;1.30;1.20;;;;;;;13.41;46.98;98312.91;5036064;28;20327;-60
2021/09/14 10:51:41;;;;;;;4.32;1.90;;;;;;;13.46;47.03;98317.41;5088049;28;20413;-61
2021/09/14 10:54:07;;;;;;;2.45;1.23;;;;;;;13.46;46.29;98317.41;5089392;28;20044;-60
2021/09/14 10:56:33;;;;;;;2.72;1.33;;;;;;;13.41;46.30;98312.91;5089043;28;20039;-60
2021/09/14 10:58:58;;;;;;;4.47;1.15;;;;;;;13.11;46.07;98309.44;5090634;28;20412;-59
2021/09/14 11:01:25;;;;;;;4.80;1.40;;;;;;;13.03;46.79;98314.56;5089929;28;20040;-60
2021/09/14 11:04:00;;;;;;;9.57;1.92;;;;;;;13.01;47.09;98316.72;5087853;28;20048;-61
2021/09/14 11:06:27;;;;;;;6.10;2.13;;;;;;;13.04;47.77;98319.63;5087344;28;20039;-60
2021/09/14 11:09:00;;;;;;;2.33;1.30;;;;;;;13.16;46.80;98311.25;5087939;28;20040;-60
2021/09/14 11:11:26;;;;;;;3.75;1.30;;;;;;;13.13;46.33;98303.84;5089766;28;20048;-61
2021/09/14 11:13:52;;;;;;;3.50;1.23;;;;;;;13.04;45.10;98297.53;5087511;28;20552;-61
2021/09/14 11:16:18;;;;;;;2.13;1.20;;;;;;;13.05;44.98;98299.13;5088804;28;20079;-61
2021/09/14 11:18:44;;;;;;;3.55;1.27;;;;;;;13.27;45.09;98301.38;5087756;28;20148;-59
2021/09/14 11:21:15;;;;;;;9.43;1.40;;;;;;;13.41;46.02;98288.94;5089286;28;20035;-61
2021/09/14 11:23:47;;;;;;;9.85;1.65;;;;;;;13.60;44.94;98287.16;5087683;28;20156;-59
2021/09/14 11:26:15;;;;;;;6.32;1.85;;;;;;;13.69;43.94;98283.88;5090552;28;20093;-60
2021/09/14 11:28:51;;;;;;;2.40;1.00;;;;;;;13.67;43.76;98299.31;5089190;28;20040;-60
2021/09/14 11:31:17;;;;;;;3.92;1.10;;;;;;;13.69;42.95;98287.31;5090070;28;20055;-60
2021/09/14 11:33:43;;;;;;;6.05;1.42;;;;;;;13.66;42.00;98284.44;5089673;28;20044;-55
2021/09/14 11:36:10;;;;;;;5.35;1.50;;;;;;;13.67;41.52;98275.38;5090324;28;20076;-61
2021/09/14 11:38:37;;;;;;;4.40;1.20;;;;;;;13.80;40.67;98275.47;5087657;28;20047;-59
2021/09/14 11:41:15;;;;;;;6.68;1.50;;;;;;;13.82;40.38;98272.50;5087557;28;20563;-58
2021/09/14 11:43:42;;;;;;;1.17;0.90;;;;;;;13.88;40.34;98279.34;5084071;28;20055;-58
2021/09/14 11:46:16;;;;;;;4.05;1.10;;;;;;;13.76;40.52;98274.44;5088657;28;20066;-60
2021/09/14 11:48:57;;;;;;;1.10;0.90;;;;;;;13.60;40.44;98279.16;5087992;28;20050;-58
2021/09/14 11:51:22;;;;;;;;;;;;;;;13.46;40.54;98283.56;5089638;28;20042;-57
2021/09/14 11:53:50;;;;;;;2.38;0.90;;;;;;;13.38;41.09;98290.34;5087301;28;20026;-58
2021/09/14 11:56:18;;;;;;;3.50;1.17;;;;;;;13.23;40.78;98277.13;5088031;28;20044;-59
2021/09/14 11:58:45;;;;;;;5.78;1.20;;;;;;;13.19;40.37;98278.78;5089182;28;20051;-61
2021/09/14 12:01:12;;;;;;;3.35;1.17;;;;;;;13.18;41.15;98288.63;5087406;28;20448;-60
2021/09/14 12:03:43;;;;;;;2.00;1.10;;;;;;;13.31;41.27;98281.09;5088481;28;20068;-60
2021/09/14 12:06:09;;;;;;;13.05;2.20;;;;;;;13.23;42.58;98279.78;5085665;28;20070;-60
2021/09/14 12:08:44;;;;;;;3.08;1.25;;;;;;;13.24;42.00;98276.06;5088654;28;20039;-60
2021/09/14 12:11:10;;;;;;;3.05;1.10;;;;;;;13.22;42.95;98272.09;5084988;28;20405;-62
2021/09/14 12:13:38;;;;;;;3.15;1.20;;;;;;;13.24;43.17;98284.06;5086679;28;20056;-60
2021/09/14 12:16:28;;;;;;;5.65;1.52;;;;;;;13.30;43.51;98284.81;5087198;28;20063;-61
2021/09/14 12:18:56;;;;;;;3.85;1.48;;;;;;;13.38;43.08;98285.00;5068726;28;20126;-60
2021/09/14 12:21:23;;;;;;;3.03;1.30;;;;;;;13.40;42.65;98288.16;5088612;28;20044;-61
2021/09/14 12:23:49;;;;;;;5.10;1.40;;;;;;;13.51;42.45;98293.38;5088853;28;20490;-59
2021/09/14 12:26:19;;;;;;;1.75;1.10;;;;;;;13.44;42.28;98296.38;5088514;28;20051;-61
2021/09/14 12:28:46;;;;;;;4.60;1.30;;;;;;;13.45;42.44;98299.84;5089254;28;20042;-60
2021/09/14 12:31:12;;;;;;;7.93;1.88;;;;;;;13.50;42.90;98295.25;5087916;28;20047;-62
2021/09/14 12:33:37;;;;;;;2.97;1.20;;;;;;;13.48;42.63;98294.75;5087989;28;20093;-61
2021/09/14 12:36:03;;;;;;;4.78;1.50;;;;;;;13.46;41.66;98296.09;5088577;28;20048;-62
2021/09/14 12:38:29;;;;;;;6.05;1.35;;;;;;;13.39;41.81;98297.22;5086997;28;20118;-61